x

Cape Elizabeth- 45nm Nw Of Aberdeen, Wa (46041) Wave Buoy

3:50am - Wed 20th Mar 2019 All times are PDT. -7 hours from GMT.

  • Sig Wave height 7.9ft
  • Swell Direction
  • Peak Period 15s
  • Average Period 11s
  • Wind
    11mph, 11mph gusts
  • Sea Temp 49°f
  • Air Temp 55°f
  • Sea Pressure 1011.4mb
  • Cape Elizabeth- 45nm Nw Of Aberdeen, Wa
  • Cape Elizabeth- 45nm Nw Of Aberdeen, Wa

More Historic Weather Station data

Upgrade to MSW Pro to gain access to the past 30 days of data for over 8000 Wavebouys and Weather Stations around the globe.

Join

Comparision Forecast

View Surf forecast
   
Wed 03/20 3:50am 8ft 15s 11s 11 11 mph 1011.4mb 49f 55f
2:50am 7ft 15s 10s 7 9 mph 1011.7mb 49f 54f
1:50am 7ft 15s 10s 7 9 mph 1011.4mb 49f 54f
12:50am 7ft 16s 10s 7 9 mph 1011.3mb 49f 56f
Tue 03/19 11:50pm 7.5ft 11s 10s 4 7 mph 1011.4mb 49f 57f
10:50pm 8.5ft 15s 11s 7 9 mph 1011.4mb 49f 54f
9:50pm 7ft 11s 10s 9 13 mph 1011.1mb 49f 56f
8:50pm 8ft 15s 10s 7 9 mph 1011.1mb 50f 58f
7:50pm 8ft 12s 10s 7 9 mph 1011.4mb 50f 56f
6:50pm 7.5ft 14s 10s 9 11 mph 1011.5mb 50f 60f
5:50pm 8ft 16s 10s 9 11 mph 1011.9mb 50f 58f
4:50pm 7.5ft 13s 9s 7 9 mph 1012.3mb 50f 55f
3:50pm 7.5ft 16s 8s 16 18 mph 1012.2mb 50f 60f
2:50pm 7.5ft 11s 8s 11 13 mph 1012.7mb 49f 57f
1:50pm 7ft 13s 8s 16 18 mph 1012.9mb 49f 57f
12:50pm 7ft 13s 8s 20 22 mph 1012.8mb 49f 58f
11:50am 6.5ft 14s 8s 16 18 mph 1013.5mb 49f 56f
10:50am 7ft 12s 8s 13 16 mph 1013.9mb 49f 55f
9:50am 6.5ft 12s 8s 11 11 mph 1014mb 49f 53f
8:50am 7ft 13s 9s 11 13 mph 1014.1mb 49f 53f
7:50am 6.5ft 15s 9s 9 11 mph 1014.6mb 49f 52f
6:50am 6ft 12s 9s 11 13 mph 1014.6mb 49f 53f
5:50am 6.5ft 12s 9s 13 16 mph 1015mb 49f 53f
4:50am 7.5ft 11s 9s 13 16 mph 1015.3mb 49f 53f
3:50am 6ft 13s 9s 16 18 mph 1015.5mb 50f 54f
2:50am 6ft 13s 8s 13 16 mph 1015.9mb 50f 54f
1:50am 5.5ft 12s 7s 16 18 mph 1015.8mb 50f 55f
12:50am 6ft 11s 8s 16 20 mph 1015.8mb 50f 56f
Mon 03/18 11:50pm 5ft 11s 8s 9 13 mph 1016.1mb 51f 55f
10:50pm 5ft 11s 8s 9 11 mph 1016.1mb 51f 57f
9:50pm 5ft 12s 8s 13 13 mph 1015.9mb 51f 59f
8:50pm 4.5ft 11s 8s 9 9 mph 1015.6mb 50f 58f
7:50pm 4.5ft 11s 8s 9 11 mph 1015.5mb 50f 60f
6:50pm 5ft 12s 9s 7 9 mph 1015.7mb 50f 59f
5:50pm 5ft 13s 8s 4 7 mph 1016.1mb 51f 54f
4:50pm 4.5ft 11s 8s 4 7 mph 1016.9mb 51f 54f
3:50pm 5ft 12s 8s 4 7 mph 1017.6mb 51f 54f
2:50pm 6ft 11s 9s 9 11 mph 1018mb 51f 54f
1:50pm 5.5ft 11s 8s 9 11 mph 1018.7mb 50f 53f
12:50pm 6ft 11s 8s 7 9 mph 1019.2mb 50f 53f
11:50am 5.5ft 11s 8s 11 13 mph 1019.5mb 49f 53f
10:50am 6ft 13s 9s 7 11 mph 1020mb 49f 50f
9:50am 5ft 12s 8s 11 16 mph 1020mb 49f 50f
8:50am 5.5ft 13s 8s 11 18 mph 1020.1mb 49f 50f
7:50am 5.5ft 11s 9s 11 13 mph 1020.2mb 49f 50f
6:50am 5.5ft 13s 9s 13 16 mph 1020.6mb 49f 49f
5:50am 6.5ft 12s 10s 7 9 mph 1020.9mb 49f 49f
4:50am 6ft 13s 10s  -  2 mph 1021.1mb 49f 48f
3:50am 6ft 13s 10s 2 4 mph 1021.5mb 49f 49f
2:50am 6ft 13s 10s 4 7 mph 1021.9mb 49f 50f
1:50am 7ft 13s 10s 7 9 mph 1021.8mb 49f 49f
12:50am 7.5ft 11s 10s 4 7 mph 1022mb 49f 49f
Sun 03/17 11:50pm 8ft 14s 10s 2 4 mph 1022.1mb 49f 50f
10:50pm 7.5ft 14s 10s 2 4 mph 1022.2mb 49f 50f
9:50pm 7ft 13s 10s 2 4 mph 1022.4mb 49f 49f
8:50pm 8ft 14s 10s 2 4 mph 1022.2mb 49f 50f
7:50pm 7ft 14s 10s 4 4 mph 1022.3mb 49f 50f
6:50pm 8ft 14s 10s 9 9 mph 1022.3mb 50f 50f
5:50pm 8ft 14s 10s 9 11 mph 1023.1mb 50f 50f
4:50pm 8ft 15s 10s 9 11 mph 1023.9mb 51f 50f
3:50pm 8ft 15s 10s 7 9 mph 1024.6mb 51f 50f
2:50pm 8.5ft 15s 11s 7 7 mph 1024.9mb 51f 50f
1:50pm 9ft 15s 10s 2 4 mph 1025.3mb 50f 49f
12:50pm 11ft 15s 11s 2 4 mph 1025.7mb 50f 48f
11:50am 8.5ft 15s 10s 2 4 mph 1025.8mb 49f 48f
10:50am 8ft 16s 10s 4 7 mph 1025.8mb 48f 47f
9:50am 9ft 15s 10s 4 7 mph 1025.9mb 48f 47f
8:50am 9.5ft 15s 11s  -  2 mph 1025.8mb 47f 49f
7:50am 10ft 14s 11s 2 4 mph 1025.6mb 47f 47f
6:50am 9.5ft 15s 11s 7 11 mph 1025.1mb 48f 47f
5:50am 9.5ft 15s 11s 4 9 mph 1025.3mb 48f 47f
4:50am 10ft 15s 11s 2 4 mph 1025.4mb 48f 47f
3:50am 9ft 16s 11s 4 9 mph 1025.5mb 48f 48f
2:50am 8ft 16s 10s 4 7 mph 1025.8mb 49f 48f
1:50am 8ft 17s 11s 7 9 mph 1025.7mb 49f 49f
12:50am 8ft 17s 11s 7 9 mph 1025.5mb 49f 49f
Sat 03/16 11:50pm 6ft 17s 10s 7 9 mph 1025.3mb 49f 49f
10:50pm 6ft 12s 9s 7 9 mph 1025.1mb 49f 49f
9:50pm 5ft 19s 9s 2 4 mph 1024.9mb 49f 49f
8:50pm 5ft 12s 9s 2 4 mph 1024.4mb 50f 49f
7:50pm 5ft 12s 9s 4 7 mph 1024.5mb 50f 49f
6:50pm 4ft 13s 8s 4 7 mph 1024.8mb 50f 49f
5:50pm 4.5ft 13s 8s 2 4 mph 1025.2mb 51f 50f
4:50pm 4.5ft 13s 8s 2 4 mph 1025.4mb 51f 50f
3:50pm 4.5ft 12s 8s 2 4 mph 1025.6mb 51f 50f
2:50pm 4.5ft 13s 8s  -  2 mph 1025.4mb 50f 50f
1:50pm 4.5ft 13s 8s  -  2 mph 1025.7mb 49f 50f
12:50pm 4ft 12s 8s 7 7 mph 1025.5mb 49f 48f